createdAt,value
2018-06-14T00:02:21.511Z,96.10
2018-06-14T00:04:54.444Z,96.10
2018-06-14T00:07:26.836Z,96.10
2018-06-14T00:09:59.253Z,96.20
2018-06-14T00:12:31.669Z,96.00
2018-06-14T00:15:04.904Z,96.20
2018-06-14T00:17:37.323Z,96.10
2018-06-14T00:20:09.709Z,96.10
2018-06-14T00:22:42.153Z,96.10
2018-06-14T00:25:14.550Z,96.20
2018-06-14T00:27:47.197Z,96.20
2018-06-14T00:30:19.645Z,96.30
2018-06-14T00:32:52.037Z,96.40
2018-06-14T00:35:24.689Z,96.50
2018-06-14T00:37:57.093Z,96.50
2018-06-14T00:40:29.478Z,96.40
2018-06-14T00:43:01.885Z,96.70
2018-06-14T00:45:34.709Z,96.70
2018-06-14T00:48:07.140Z,96.80
2018-06-14T00:50:39.569Z,96.70
2018-06-14T00:53:11.986Z,96.80
2018-06-14T00:55:44.376Z,96.80
2018-06-14T00:58:16.761Z,96.80
2018-06-14T01:00:49.155Z,96.80
2018-06-14T01:03:21.567Z,96.80
2018-06-14T01:05:53.953Z,96.90
2018-06-14T01:08:26.437Z,96.80
2018-06-14T01:10:59.141Z,96.80
2018-06-14T01:13:31.862Z,96.90
2018-06-14T01:16:04.489Z,96.80
2018-06-14T01:18:37.421Z,96.90
2018-06-14T01:21:10.102Z,96.90
2018-06-14T01:23:42.776Z,97.00
2018-06-14T01:26:15.397Z,97.00
2018-06-14T01:28:47.797Z,97.20
2018-06-14T01:31:20.195Z,97.10
2018-06-14T01:33:52.897Z,97.20
2018-06-14T01:36:25.286Z,97.20
2018-06-14T01:38:57.692Z,97.20
2018-06-14T01:41:30.072Z,97.60
2018-06-14T01:44:02.593Z,97.20
2018-06-14T01:46:35.249Z,97.20
2018-06-14T01:49:07.653Z,97.20
2018-06-14T01:51:40.036Z,97.30
2018-06-14T01:54:12.431Z,97.40
2018-06-14T01:56:44.817Z,97.40
2018-06-14T01:59:17.218Z,97.50
2018-06-14T02:01:49.849Z,97.50
2018-06-14T02:04:22.265Z,97.40
2018-06-14T02:06:54.645Z,97.50
2018-06-14T02:09:27.033Z,97.50
2018-06-14T02:11:59.414Z,97.60
2018-06-14T02:14:32.138Z,97.50
2018-06-14T02:17:04.627Z,97.40
2018-06-14T02:19:37.025Z,97.60
2018-06-14T02:22:09.417Z,97.60
2018-06-14T02:24:42.121Z,97.50
2018-06-14T02:27:14.733Z,97.40
2018-06-14T02:29:47.366Z,97.40
2018-06-14T02:32:19.961Z,97.60
2018-06-14T02:34:52.374Z,97.40
2018-06-14T02:37:24.757Z,97.60
2018-06-14T02:39:57.153Z,97.60
2018-06-14T02:42:29.534Z,97.50
2018-06-14T02:45:02.457Z,97.60
2018-06-14T02:47:35.101Z,97.60
2018-06-14T02:50:07.506Z,97.60
2018-06-14T02:52:39.889Z,97.70
2018-06-14T02:55:12.590Z,97.80
2018-06-14T02:57:45.237Z,97.80
2018-06-14T03:00:17.633Z,97.80
2018-06-14T03:02:50.038Z,97.80
2018-06-14T03:05:22.966Z,98.00
2018-06-14T03:07:55.653Z,98.00
2018-06-14T03:10:28.309Z,98.10
2018-06-14T03:13:01.549Z,98.00
2018-06-14T03:15:33.967Z,97.80
2018-06-14T03:20:38.598Z,97.90
2018-06-14T03:23:11.018Z,97.80
2018-06-14T03:25:43.421Z,97.90
2018-06-14T03:28:16.149Z,97.70
2018-06-14T03:30:48.797Z,97.70
2018-06-14T03:33:21.478Z,97.70
2018-06-14T03:35:54.148Z,97.70
2018-06-14T03:38:26.673Z,97.60
2018-06-14T03:40:59.076Z,97.40
2018-06-14T03:43:31.718Z,97.20
2018-06-14T03:46:04.217Z,97.20
2018-06-14T03:48:36.622Z,96.90
2018-06-14T03:51:09.316Z,96.60
2018-06-14T03:53:41.686Z,96.30
2018-06-14T03:56:14.389Z,95.90
2018-06-14T03:58:46.781Z,94.90
2018-06-14T04:01:19.165Z,94.90
2018-06-14T04:03:51.808Z,94.30
2018-06-14T04:06:24.209Z,93.90
2018-06-14T04:08:56.655Z,93.00
2018-06-14T04:11:29.033Z,92.50
2018-06-14T04:14:01.706Z,91.30
2018-06-14T04:16:34.465Z,91.40
2018-06-14T04:19:06.853Z,90.30
2018-06-14T04:21:39.240Z,90.60
2018-06-14T04:24:11.625Z,90.10
2018-06-14T04:26:44.354Z,90.20
2018-06-14T04:29:16.737Z,90.60
2018-06-14T04:31:49.139Z,90.40
2018-06-14T04:34:21.536Z,90.60
2018-06-14T04:36:53.970Z,91.00
2018-06-14T04:39:26.410Z,91.00
2018-06-14T04:41:58.782Z,90.80
2018-06-14T04:44:31.157Z,90.50
2018-06-14T04:47:03.585Z,90.00
2018-06-14T04:49:35.994Z,89.30
2018-06-14T04:52:08.381Z,86.50
2018-06-14T04:54:40.776Z,86.00
2018-06-14T04:57:13.177Z,83.60
2018-06-14T04:59:45.874Z,82.50
2018-06-14T05:02:18.935Z,81.40
2018-06-14T05:04:51.550Z,79.90
2018-06-14T05:07:24.486Z,78.40
2018-06-14T05:09:56.861Z,75.90
2018-06-14T05:12:29.507Z,73.90
2018-06-14T05:15:01.895Z,73.00
2018-06-14T05:17:34.281Z,72.30
2018-06-14T05:20:06.745Z,69.60
2018-06-14T05:22:39.450Z,70.10
2018-06-14T05:25:11.821Z,69.20
2018-06-14T05:27:44.237Z,67.80
2018-06-14T05:30:16.641Z,66.50
2018-06-14T05:32:49.056Z,65.70
2018-06-14T05:35:21.699Z,63.60
2018-06-14T05:37:54.106Z,61.10
2018-06-14T05:40:27.123Z,60.50
2018-06-14T05:42:59.501Z,59.50
2018-06-14T05:45:31.901Z,59.50
2018-06-14T05:48:04.320Z,60.10
2018-06-14T05:50:36.701Z,59.60
2018-06-14T05:53:09.129Z,59.10
2018-06-14T05:55:41.692Z,57.40
2018-06-14T05:58:14.367Z,57.30
2018-06-14T06:00:47.047Z,56.20
2018-06-14T06:03:19.701Z,55.00
2018-06-14T06:05:52.105Z,53.70
2018-06-14T06:08:24.773Z,53.50
2018-06-14T06:10:57.248Z,53.30
2018-06-14T06:13:29.706Z,51.80
2018-06-14T06:16:02.683Z,51.00
2018-06-14T06:18:35.390Z,50.50
2018-06-14T06:21:07.781Z,49.60
2018-06-14T06:23:40.438Z,50.40
2018-06-14T06:26:12.871Z,47.80
2018-06-14T06:28:45.245Z,47.40
2018-06-14T06:31:17.629Z,47.90
2018-06-14T06:33:50.068Z,47.40
2018-06-14T06:36:22.441Z,46.20
2018-06-14T06:38:54.845Z,47.30
2018-06-14T06:41:27.241Z,46.20
2018-06-14T06:43:59.645Z,46.00
2018-06-14T06:46:32.049Z,45.90
2018-06-14T06:49:04.462Z,45.80
2018-06-14T06:51:37.103Z,45.10
2018-06-14T06:54:09.769Z,44.80
2018-06-14T06:56:42.161Z,44.60
2018-06-14T06:59:14.565Z,44.50
2018-06-14T07:01:47.201Z,43.00
2018-06-14T07:04:19.613Z,42.90
2018-06-14T07:06:52.011Z,42.30
2018-06-14T07:09:24.425Z,42.90
2018-06-14T07:11:56.824Z,42.20
2018-06-14T07:14:29.245Z,42.10
2018-06-14T07:17:01.883Z,43.20
2018-06-14T07:19:34.525Z,42.80
2018-06-14T07:22:07.199Z,43.00
2018-06-14T07:24:40.135Z,43.00
2018-06-14T07:27:12.890Z,42.70
2018-06-14T07:29:45.538Z,42.40
2018-06-14T07:32:17.984Z,42.30
2018-06-14T07:34:50.365Z,42.20
2018-06-14T07:37:22.795Z,41.30
2018-06-14T07:39:55.421Z,41.10
2018-06-14T07:42:27.840Z,40.90
2018-06-14T07:45:00.808Z,40.90
2018-06-14T07:47:33.245Z,41.50
2018-06-14T07:50:05.610Z,42.00
2018-06-14T07:52:38.013Z,42.00
2018-06-14T07:55:10.730Z,42.70
2018-06-14T07:57:43.144Z,42.70
2018-06-14T08:00:15.547Z,43.10
2018-06-14T08:02:47.957Z,43.40
2018-06-14T08:05:20.345Z,42.50
2018-06-14T08:07:52.762Z,41.70
2018-06-14T08:10:25.420Z,42.20
2018-06-14T08:12:57.842Z,42.40
2018-06-14T08:15:30.481Z,42.40
2018-06-14T08:18:02.902Z,42.90
2018-06-14T08:20:35.681Z,43.00
2018-06-14T08:23:08.068Z,42.80
2018-06-14T08:25:40.729Z,42.60
2018-06-14T08:28:13.161Z,42.80
2018-06-14T08:30:46.081Z,42.30
2018-06-14T08:33:18.741Z,42.60
2018-06-14T08:35:51.446Z,43.50
2018-06-14T08:38:24.092Z,45.30
2018-06-14T08:40:56.547Z,46.90
2018-06-14T08:43:28.954Z,47.30
2018-06-14T08:46:01.350Z,47.30
2018-06-14T08:48:33.972Z,46.20
2018-06-14T08:51:06.698Z,46.70
2018-06-14T08:53:39.346Z,47.50
2018-06-14T08:56:11.730Z,47.10
2018-06-14T08:58:44.129Z,47.00
2018-06-14T09:01:16.517Z,46.50
2018-06-14T09:03:49.241Z,46.40
2018-06-14T09:06:21.646Z,44.30
2018-06-14T09:08:54.041Z,41.90
2018-06-14T09:11:26.425Z,42.00
2018-06-14T09:13:58.838Z,40.20
2018-06-14T09:16:31.218Z,39.70
2018-06-14T09:19:03.907Z,38.50
2018-06-14T09:21:36.525Z,38.30
2018-06-14T09:24:09.238Z,39.70
2018-06-14T09:34:19.539Z,42.70
2018-06-14T09:36:52.251Z,42.40
2018-06-14T09:39:24.909Z,42.30
2018-06-14T09:41:57.608Z,42.10
2018-06-14T09:44:30.262Z,43.00
2018-06-14T09:47:02.929Z,42.60
2018-06-14T09:49:35.353Z,41.70
2018-06-14T09:52:07.943Z,43.10
2018-06-14T09:54:40.669Z,43.70
2018-06-14T09:59:45.309Z,43.80
2018-06-14T10:02:17.945Z,45.90
2018-06-14T10:04:50.632Z,45.60
2018-06-14T10:07:23.269Z,45.90
2018-06-14T10:09:55.661Z,46.00
2018-06-14T10:12:28.046Z,46.00
2018-06-14T10:15:00.994Z,46.80
2018-06-14T10:17:33.609Z,47.70
2018-06-14T10:20:06.257Z,47.30
2018-06-14T10:22:38.906Z,47.20
2018-06-14T10:25:11.553Z,46.60
2018-06-14T10:27:44.185Z,46.80
2018-06-14T10:30:16.862Z,45.80
2018-06-14T10:32:49.551Z,46.20
2018-06-14T10:35:21.949Z,46.60
2018-06-14T10:37:54.337Z,46.30
2018-06-14T10:40:26.729Z,46.10
2018-06-14T10:42:59.231Z,46.50
2018-06-14T10:48:04.115Z,45.30
2018-06-14T10:50:36.492Z,46.60
2018-06-14T10:53:08.869Z,47.20
2018-06-14T10:55:41.291Z,47.40
2018-06-14T10:58:13.692Z,47.60
2018-06-14T11:00:46.090Z,46.10
2018-06-14T11:03:18.477Z,44.70
2018-06-14T11:05:50.890Z,43.00
2018-06-14T11:08:23.290Z,41.70
2018-06-14T11:10:55.933Z,40.90
2018-06-14T11:13:28.681Z,39.40
2018-06-14T11:16:01.370Z,41.00
2018-06-14T11:18:34.054Z,40.50
2018-06-14T11:21:06.445Z,40.60
2018-06-14T11:23:39.097Z,40.30
2018-06-14T11:26:11.764Z,41.30
2018-06-14T11:28:44.413Z,41.30
2018-06-14T11:31:19.158Z,43.20
2018-06-14T11:33:51.553Z,43.70
2018-06-14T11:36:24.258Z,43.70
2018-06-14T11:38:56.635Z,43.90
2018-06-14T11:41:29.026Z,44.50
2018-06-14T11:44:01.397Z,44.50
2018-06-14T11:46:33.785Z,44.20
2018-06-14T11:49:06.466Z,44.00
2018-06-14T11:51:39.515Z,44.10
2018-06-14T11:54:12.161Z,43.60
2018-06-14T11:56:44.813Z,43.40
2018-06-14T11:59:17.488Z,44.70
2018-06-14T12:01:50.195Z,44.00
2018-06-14T12:04:22.578Z,44.70
2018-06-14T12:06:55.277Z,44.60
2018-06-14T12:09:27.668Z,44.30
2018-06-14T12:12:00.633Z,44.00
2018-06-14T12:14:33.108Z,43.70
2018-06-14T12:17:05.513Z,43.70
2018-06-14T12:19:37.900Z,43.50
2018-06-14T12:22:10.290Z,44.00
2018-06-14T12:24:42.674Z,44.40
2018-06-14T12:27:15.171Z,44.10
2018-06-14T12:29:47.547Z,43.50
2018-06-14T12:32:19.984Z,44.10
2018-06-14T12:34:52.642Z,44.20
2018-06-14T12:37:25.578Z,44.30
2018-06-14T12:39:58.337Z,45.20
2018-06-14T12:42:31.016Z,44.80
2018-06-14T12:45:03.653Z,45.60
2018-06-14T12:47:36.362Z,45.20
2018-06-14T12:50:08.750Z,45.20
2018-06-14T12:52:41.446Z,45.20
2018-06-14T12:55:13.840Z,45.10
2018-06-14T12:57:46.257Z,45.40
2018-06-14T13:00:18.642Z,45.10
2018-06-14T13:02:51.070Z,44.70
2018-06-14T13:05:23.455Z,44.50
2018-06-14T13:07:55.874Z,44.60
2018-06-14T13:10:28.285Z,44.60
2018-06-14T13:13:00.725Z,43.20
2018-06-14T13:15:33.178Z,44.10
2018-06-14T13:18:05.674Z,44.40
2018-06-14T13:20:38.353Z,44.30
2018-06-14T13:23:10.729Z,44.30
2018-06-14T13:25:43.146Z,43.90
2018-06-14T13:28:15.529Z,44.20
2018-06-14T13:30:47.937Z,44.20
2018-06-14T13:33:20.590Z,44.60
2018-06-14T13:35:53.002Z,45.00
2018-06-14T13:38:25.409Z,44.80
2018-06-14T13:40:57.815Z,45.50
2018-06-14T13:43:30.618Z,45.60
2018-06-14T13:46:03.039Z,45.00
2018-06-14T13:48:35.491Z,45.80
2018-06-14T13:51:07.884Z,46.20
2018-06-14T13:53:40.583Z,46.00
2018-06-14T13:56:13.251Z,46.30
2018-06-14T13:58:45.649Z,45.50
2018-06-14T14:01:18.073Z,45.80
2018-06-14T14:03:50.463Z,46.40
2018-06-14T14:06:23.333Z,46.70
2018-06-14T14:08:55.670Z,47.20
2018-06-14T14:11:28.062Z,47.20
2018-06-14T14:14:00.482Z,46.00
2018-06-14T14:16:33.149Z,46.30
2018-06-14T14:19:05.537Z,45.80
2018-06-14T14:21:37.941Z,46.00
2018-06-14T14:24:10.713Z,46.20
2018-06-14T14:26:43.365Z,46.10
2018-06-14T14:29:15.869Z,47.00
2018-06-14T14:31:48.257Z,46.20
2018-06-14T14:34:20.888Z,46.80
2018-06-14T14:36:53.577Z,47.40
2018-06-14T14:39:25.975Z,48.40
2018-06-14T14:41:58.474Z,47.60
2018-06-14T14:44:30.859Z,48.20
2018-06-14T14:47:03.901Z,49.80
2018-06-14T14:49:36.522Z,51.30
2018-06-14T14:52:09.222Z,51.20
2018-06-14T14:54:41.597Z,52.20
2018-06-14T14:57:13.998Z,52.80
2018-06-14T14:59:46.476Z,52.80
2018-06-14T15:02:18.888Z,53.50
2018-06-14T15:04:51.260Z,53.80
2018-06-14T15:07:23.722Z,54.90
2018-06-14T15:09:56.433Z,55.60
2018-06-14T15:12:29.124Z,57.90
2018-06-14T15:15:01.495Z,58.20
2018-06-14T15:17:34.309Z,59.60
2018-06-14T15:20:07.397Z,61.10
2018-06-14T15:22:39.828Z,63.30
2018-06-14T15:25:12.240Z,65.30
2018-06-14T15:27:44.629Z,69.40
2018-06-14T15:30:17.051Z,70.30
2018-06-14T15:32:49.773Z,71.80
2018-06-14T15:35:22.166Z,75.80
2018-06-14T15:37:54.565Z,80.20
2018-06-14T15:40:26.949Z,81.40
2018-06-14T15:42:59.626Z,83.80
2018-06-14T15:45:32.069Z,82.20
2018-06-14T15:48:04.711Z,88.00
2018-06-14T15:50:37.106Z,86.20
2018-06-14T15:53:09.513Z,91.20
2018-06-14T15:56:06.741Z,91.80
2018-06-14T15:58:39.473Z,92.30
2018-06-14T16:01:12.151Z,93.70
2018-06-14T16:03:44.525Z,94.20
2018-06-14T16:06:17.218Z,94.00
2018-06-14T16:08:49.631Z,93.90
2018-06-14T16:11:22.017Z,94.30
2018-06-14T16:13:54.426Z,94.90
2018-06-14T16:16:26.813Z,95.60
2018-06-14T16:18:59.433Z,96.20
2018-06-14T16:21:32.110Z,96.10
2018-06-14T16:24:04.506Z,95.90
2018-06-14T16:26:37.213Z,96.30
2018-06-14T16:29:09.615Z,95.80
2018-06-14T16:31:42.000Z,96.60
2018-06-14T16:34:14.385Z,96.20
2018-06-14T16:36:47.062Z,95.90
2018-06-14T16:39:19.765Z,96.00
2018-06-14T16:41:52.426Z,96.40
2018-06-14T16:44:25.073Z,95.10
2018-06-14T16:46:57.447Z,96.50
2018-06-14T16:49:30.171Z,95.60
2018-06-14T16:52:02.780Z,96.00
2018-06-14T16:54:35.166Z,96.30
2018-06-14T16:57:07.565Z,96.40
2018-06-14T16:59:40.257Z,95.90
2018-06-14T17:02:12.633Z,96.00
2018-06-14T17:04:45.349Z,96.70
2018-06-14T17:07:17.756Z,97.50
2018-06-14T17:09:50.157Z,97.00
2018-06-14T17:12:22.876Z,96.60
2018-06-14T17:14:55.556Z,97.40
2018-06-14T17:17:27.995Z,97.50
2018-06-14T17:20:00.390Z,97.10
2018-06-14T17:22:33.132Z,97.40
2018-06-14T17:25:05.537Z,97.40
2018-06-14T17:27:37.937Z,97.80
2018-06-14T17:30:10.373Z,97.90
2018-06-14T17:32:42.976Z,97.90
2018-06-14T17:35:15.365Z,97.80
2018-06-14T17:37:47.912Z,98.20
2018-06-14T17:40:20.318Z,98.10
2018-06-14T17:42:52.710Z,98.20
2018-06-14T17:45:25.101Z,98.40
2018-06-14T17:47:57.484Z,98.00
2018-06-14T17:50:29.922Z,97.70
2018-06-14T17:53:02.300Z,97.70
2018-06-14T17:55:34.761Z,97.90
2018-06-14T17:58:07.149Z,98.10
2018-06-14T18:00:39.854Z,98.30
2018-06-14T18:03:12.869Z,98.80
2018-06-14T18:05:45.519Z,98.70
2018-06-14T18:08:18.125Z,99.10
2018-06-14T18:10:50.749Z,99.00
2018-06-14T18:13:23.121Z,98.70
2018-06-14T18:15:55.581Z,98.60
2018-06-14T18:18:28.526Z,99.00
2018-06-14T18:21:01.216Z,98.90
2018-06-14T18:23:33.720Z,99.30
2018-06-14T18:26:06.463Z,99.10
2018-06-14T18:28:39.141Z,98.70
2018-06-14T18:31:11.766Z,99.00
2018-06-14T18:33:44.397Z,99.20
2018-06-14T18:36:17.386Z,99.30
2018-06-14T18:38:50.062Z,98.80
2018-06-14T18:41:22.437Z,99.00
2018-06-14T18:43:55.064Z,99.00
2018-06-14T18:46:27.463Z,98.70
2018-06-14T18:48:59.898Z,98.80
2018-06-14T18:51:32.314Z,98.40
2018-06-14T18:54:04.746Z,98.20
2018-06-14T18:56:37.430Z,98.30
2018-06-14T18:59:10.132Z,98.60
2018-06-14T19:01:42.512Z,98.40
2018-06-14T19:04:14.904Z,98.50
2018-06-14T19:06:47.347Z,98.50
2018-06-14T19:09:19.953Z,98.50
2018-06-14T19:11:52.692Z,98.00
2018-06-14T19:14:25.125Z,98.30
2018-06-14T19:16:57.530Z,98.40
2018-06-14T19:19:29.929Z,98.30
2018-06-14T19:22:02.323Z,98.50
2018-06-14T19:24:34.708Z,98.60
2018-06-14T19:27:07.738Z,98.90
2018-06-14T19:29:40.174Z,98.70
2018-06-14T19:32:12.641Z,99.00
2018-06-14T19:34:45.037Z,99.00
2018-06-14T19:37:17.683Z,98.80
2018-06-14T19:39:50.078Z,98.90
2018-06-14T19:42:22.474Z,98.90
2018-06-14T19:44:54.869Z,98.60
2018-06-14T19:47:27.254Z,98.90
2018-06-14T19:49:59.906Z,99.30
2018-06-14T19:52:32.302Z,99.10
2018-06-14T19:57:37.231Z,99.00
2018-06-14T20:00:09.924Z,99.10
2018-06-14T20:02:42.306Z,99.00
2018-06-14T20:05:14.993Z,99.10
2018-06-14T20:07:47.648Z,99.40
2018-06-14T20:10:20.049Z,99.50
2018-06-14T20:12:53.353Z,99.30
2018-06-14T20:15:25.749Z,99.50
2018-06-14T20:17:58.356Z,99.30
2018-06-14T20:20:30.805Z,99.30
2018-06-14T20:23:03.141Z,99.20
2018-06-14T20:25:35.573Z,99.30
2018-06-14T20:28:08.494Z,99.40
2018-06-14T20:30:40.885Z,99.50
2018-06-14T20:33:13.261Z,99.70
2018-06-14T20:35:45.913Z,99.80
2018-06-14T20:38:18.301Z,99.80
2018-06-14T20:40:50.685Z,99.90
2018-06-14T20:43:23.435Z,99.90
2018-06-14T20:45:56.100Z,99.90
2018-06-14T20:48:28.510Z,99.90
2018-06-14T20:51:00.913Z,99.70
2018-06-14T20:53:33.306Z,99.80
2018-06-14T20:56:05.714Z,99.90
2018-06-14T20:58:38.093Z,99.80
2018-06-14T21:01:10.554Z,99.80
2018-06-14T21:03:43.185Z,99.60
2018-06-14T21:06:15.594Z,99.90
2018-06-14T21:08:48.161Z,99.90
2018-06-14T21:11:20.591Z,99.90
2018-06-14T21:13:53.045Z,99.90
2018-06-14T21:16:25.926Z,99.90
2018-06-14T21:18:58.324Z,99.90
2018-06-14T21:21:30.952Z,99.90
2018-06-14T21:24:03.639Z,99.90
2018-06-14T21:26:36.273Z,99.90
2018-06-14T21:29:08.663Z,99.90
2018-06-14T21:31:41.342Z,99.90
2018-06-14T21:34:13.753Z,99.90
2018-06-14T21:36:46.179Z,99.70
2018-06-14T21:39:18.874Z,99.90
2018-06-14T21:41:51.262Z,99.90
2018-06-14T21:44:24.009Z,99.90
2018-06-14T21:46:56.788Z,99.90
2018-06-14T21:49:29.194Z,99.90
2018-06-14T21:52:01.870Z,99.90
2018-06-14T21:54:34.495Z,99.90
2018-06-14T21:57:06.897Z,99.90
2018-06-14T21:59:39.297Z,99.90
2018-06-14T22:02:11.747Z,99.90
2018-06-14T22:04:44.240Z,99.90
2018-06-14T22:07:16.649Z,99.90
2018-06-14T22:09:49.601Z,99.90
2018-06-14T22:12:22.265Z,99.90
2018-06-14T22:14:54.917Z,99.90
2018-06-14T22:17:27.359Z,99.90
2018-06-14T22:19:59.738Z,99.90
2018-06-14T22:22:32.133Z,99.90
2018-06-14T22:25:04.851Z,99.90
2018-06-14T22:27:37.436Z,99.70
2018-06-14T22:30:10.158Z,99.80
2018-06-14T22:32:42.636Z,99.60
2018-06-14T22:35:24.018Z,99.20
2018-06-14T22:37:56.422Z,99.40
2018-06-14T22:40:28.825Z,99.30
2018-06-14T22:43:01.243Z,99.00
2018-06-14T22:45:33.635Z,99.20
2018-06-14T22:48:06.016Z,99.20
2018-06-14T22:50:50.071Z,99.40
2018-06-14T22:53:22.749Z,99.50
2018-06-14T22:55:55.130Z,99.60
2018-06-14T22:58:27.542Z,99.50
2018-06-14T23:01:31.145Z,99.60
2018-06-14T23:04:03.561Z,99.40
2018-06-14T23:06:35.940Z,99.50
2018-06-14T23:10:20.957Z,99.30
2018-06-14T23:12:53.665Z,99.40
2018-06-14T23:15:26.324Z,99.40
2018-06-14T23:17:58.717Z,99.70
2018-06-14T23:20:31.389Z,99.20
2018-06-14T23:23:03.782Z,98.90
2018-06-14T23:25:36.175Z,99.10
2018-06-14T23:28:08.827Z,99.30
2018-06-14T23:30:41.527Z,99.20
2018-06-14T23:33:13.916Z,99.00
2018-06-14T23:35:46.294Z,98.90
2018-06-14T23:38:18.685Z,99.00
2018-06-14T23:40:51.318Z,99.40
2018-06-14T23:43:23.974Z,99.70
2018-06-14T23:45:56.573Z,99.60
2018-06-14T23:48:29.256Z,99.90
2018-06-14T23:51:01.889Z,99.90
2018-06-14T23:53:34.289Z,99.90
2018-06-14T23:56:06.677Z,99.90
2018-06-14T23:58:39.301Z,99.90
